Time;durP1;ratioP1;P1;durP2;ratioP2;P2;SDS_P1;SDS_P2;PMS_P1;PMS_P2;Temp;Humidity;BMP_temperature;BMP_pressure;BME280_temperature;BME280_humidity;BME280_pressure;Samples;Min_cycle;Max_cycle;Signal;HPM_P1;HPM_P2
2021/01/15 00:01:02;;;;;;;23.27;10.60;;;;;;;-0.99;100.00;102364.47;4798804;29;20053;-87
2021/01/15 00:03:30;;;;;;;25.35;11.48;;;;;;;-1.18;100.00;102343.19;4800788;29;20046;-87
2021/01/15 00:05:56;;;;;;;18.70;10.20;;;;;;;-1.13;100.00;102361.50;4803087;29;20034;-87
2021/01/15 00:08:21;;;;;;;20.08;10.73;;;;;;;-1.06;100.00;102374.66;4804886;29;20039;-87
2021/01/15 00:10:46;;;;;;;19.02;10.73;;;;;;;-1.03;100.00;102381.66;4809005;29;20132;-87
2021/01/15 00:13:12;;;;;;;23.55;11.45;;;;;;;-1.08;100.00;102370.28;4809381;29;20136;-87
2021/01/15 00:15:37;;;;;;;18.58;10.40;;;;;;;-1.05;100.00;102383.34;4808907;29;20090;-87
2021/01/15 00:18:02;;;;;;;18.02;10.98;;;;;;;-1.12;100.00;102389.19;4792541;29;20019;-87
2021/01/15 00:20:28;;;;;;;25.30;11.43;;;;;;;-1.31;100.00;102364.44;4796624;29;20123;-87
2021/01/15 00:22:53;;;;;;;17.85;10.93;;;;;;;-1.21;100.00;102378.56;4818498;29;20034;-88
2021/01/15 00:25:19;;;;;;;16.63;10.60;;;;;;;-1.28;100.00;102368.84;4816934;29;20034;-87
2021/01/15 00:27:44;;;;;;;20.13;11.20;;;;;;;-1.34;100.00;102359.19;4802725;29;20159;-87
2021/01/15 00:30:10;;;;;;;19.70;11.45;;;;;;;-1.19;100.00;102400.25;4808175;29;20031;-88
2021/01/15 00:32:38;;;;;;;18.05;11.07;;;;;;;-1.27;100.00;102388.75;4808441;29;20026;-86
2021/01/15 00:35:06;;;;;;;20.20;10.85;;;;;;;-1.21;100.00;102407.97;4811607;29;20125;-86
2021/01/15 00:37:32;;;;;;;23.58;10.88;;;;;;;-1.31;100.00;102386.09;4822951;29;20038;-86
2021/01/15 00:39:57;;;;;;;16.17;9.52;;;;;;;-1.33;100.00;102395.53;4826365;29;20030;-87
2021/01/15 00:42:22;;;;;;;18.27;10.18;;;;;;;-1.29;100.00;102400.81;4807808;29;20045;-88
2021/01/15 00:44:47;;;;;;;20.35;10.32;;;;;;;-1.25;100.00;102415.66;4808957;29;20062;-88
2021/01/15 00:47:13;;;;;;;21.48;9.20;;;;;;;-1.28;100.00;102408.63;4805840;29;20472;-87
2021/01/15 00:49:38;;;;;;;21.40;10.77;;;;;;;-1.38;100.00;102398.84;4807534;29;20041;-87
2021/01/15 00:52:04;;;;;;;20.73;10.20;;;;;;;-1.37;100.00;102419.63;4820291;29;20321;-87
2021/01/15 00:54:29;;;;;;;18.38;9.88;;;;;;;-1.38;100.00;102419.59;4802457;29;20110;-87
2021/01/15 00:56:59;;;;;;;17.23;9.73;;;;;;;-1.41;100.00;102411.69;4825378;29;20045;-87
2021/01/15 00:59:24;;;;;;;20.25;10.27;;;;;;;-1.33;100.00;102434.44;4800984;29;20034;-88
2021/01/15 01:01:49;;;;;;;18.05;10.30;;;;;;;-1.34;100.00;102440.47;4804511;29;20037;-87
2021/01/15 01:04:14;;;;;;;19.30;9.52;;;;;;;-1.30;100.00;102449.22;4807068;29;20038;-87
2021/01/15 01:06:40;;;;;;;18.52;11.13;;;;;;;-1.48;100.00;102415.84;4807491;29;20038;-88
2021/01/15 01:09:06;;;;;;;20.52;9.80;;;;;;;-1.32;100.00;102453.47;4807403;29;20484;-87
2021/01/15 01:11:32;;;;;;;17.98;9.75;;;;;;;-1.51;100.00;102431.28;4800944;29;20035;-87
2021/01/15 01:13:58;;;;;;;16.50;8.77;;;;;;;-1.39;100.00;102448.94;4805747;29;20113;-87
2021/01/15 01:16:27;;;;;;;17.23;10.43;;;;;;;-1.50;100.00;102447.75;4799309;29;20031;-87
2021/01/15 01:18:54;;;;;;;13.73;8.68;;;;;;;-1.36;100.00;102472.38;4823447;29;20091;-87
2021/01/15 01:21:20;;;;;;;16.90;9.38;;;;;;;-1.44;100.00;102468.69;4808083;29;20034;-87
2021/01/15 01:23:46;;;;;;;19.67;9.00;;;;;;;-1.38;100.00;102471.47;4813532;29;20037;-85
2021/01/15 01:26:12;;;;;;;20.30;9.55;;;;;;;-1.27;100.00;102485.63;4821910;29;20030;-85
2021/01/15 01:28:42;;;;;;;16.52;9.95;;;;;;;-1.51;100.00;102457.22;4798591;29;20023;-86
2021/01/15 01:31:12;;;;;;;16.15;9.00;;;;;;;-1.32;100.00;102490.66;4818562;29;20038;-87
2021/01/15 01:33:38;;;;;;;13.43;8.40;;;;;;;-1.35;100.00;102482.81;4808846;29;20031;-87
2021/01/15 01:36:05;;;;;;;15.93;9.00;;;;;;;-1.39;100.00;102493.91;4807212;29;20041;-87
2021/01/15 01:38:30;;;;;;;15.90;9.82;;;;;;;-1.38;100.00;102487.91;4809171;29;20022;-87
2021/01/15 01:40:56;;;;;;;17.90;9.93;;;;;;;-1.39;100.00;102488.75;4807739;29;20083;-87
2021/01/15 01:43:21;;;;;;;14.98;9.32;;;;;;;-1.34;100.00;102501.84;4820497;29;20027;-87
2021/01/15 01:45:47;;;;;;;16.70;9.35;;;;;;;-1.47;100.00;102487.59;4824614;29;20037;-87
2021/01/15 01:48:12;;;;;;;13.77;9.05;;;;;;;-1.48;100.00;102509.19;4808835;29;20055;-87
2021/01/15 01:50:41;;;;;;;18.15;9.20;;;;;;;-1.49;100.00;102493.59;4808433;29;20407;-87
2021/01/15 01:53:08;;;;;;;14.10;9.55;;;;;;;-1.48;100.00;102529.06;4811666;29;20041;-87
2021/01/15 01:55:34;;;;;;;20.98;8.27;;;;;;;-1.42;100.00;102522.34;4825220;29;20044;-87
2021/01/15 01:57:59;;;;;;;13.80;9.63;;;;;;;-1.48;100.00;102503.13;4809686;29;20390;-87
2021/01/15 02:00:25;;;;;;;17.95;9.95;;;;;;;-1.44;100.00;102517.97;4805242;29;20034;-87
2021/01/15 02:02:50;;;;;;;17.52;8.60;;;;;;;-1.39;100.00;102524.16;4806406;29;20120;-87
2021/01/15 02:05:15;;;;;;;13.57;8.38;;;;;;;-1.46;100.00;102528.25;4807848;29;20069;-87
2021/01/15 02:07:41;;;;;;;14.93;8.98;;;;;;;-1.53;100.00;102525.44;4804492;29;20164;-87
2021/01/15 02:10:12;;;;;;;14.52;8.43;;;;;;;-1.41;100.00;102543.97;4806527;29;20035;-87
2021/01/15 02:12:57;;;;;;;20.40;8.82;;;;;;;-1.53;100.00;102544.47;4811143;29;20095;-86
2021/01/15 02:15:29;;;;;;;13.98;8.45;;;;;;;-1.40;100.00;102545.75;4811732;29;21450;-86
2021/01/15 02:18:05;;;;;;;14.52;9.18;;;;;;;-1.50;100.00;102548.91;4805016;29;20037;-86
2021/01/15 02:20:30;;;;;;;10.27;7.28;;;;;;;-1.41;100.00;102559.53;4808576;29;20030;-86
2021/01/15 02:23:04;;;;;;;17.38;8.60;;;;;;;-1.48;100.00;102566.25;4811035;29;20046;-87
2021/01/15 02:26:03;;;;;;;13.98;8.95;;;;;;;-1.42;100.00;102569.03;4807351;29;20482;-87
2021/01/15 02:28:54;;;;;;;13.68;8.40;;;;;;;-1.40;100.00;102563.91;4820770;29;20092;-87
2021/01/15 02:31:51;;;;;;;14.65;8.32;;;;;;;-1.43;100.00;102558.63;4808679;29;20030;-87
2021/01/15 02:35:02;;;;;;;10.65;7.30;;;;;;;-1.56;100.00;102544.34;4802048;29;20067;-87
2021/01/15 02:37:46;;;;;;;18.08;9.93;;;;;;;-1.50;100.00;102569.63;4751140;30;20040;-87
2021/01/15 02:40:23;;;;;;;13.65;7.78;;;;;;;-1.51;100.00;102579.09;4804466;29;20078;-87
2021/01/15 02:42:51;;;;;;;14.63;7.93;;;;;;;-1.46;100.00;102580.13;4802962;29;20038;-87
2021/01/15 02:45:17;;;;;;;14.75;8.77;;;;;;;-1.50;100.00;102583.47;4825310;29;20036;-87
2021/01/15 02:47:50;;;;;;;15.30;7.60;;;;;;;-1.62;100.00;102576.16;4801122;29;20039;-87
2021/01/15 02:50:19;;;;;;;14.50;9.23;;;;;;;-1.57;100.00;102587.56;4824604;29;20023;-86
2021/01/15 02:52:45;;;;;;;14.10;8.15;;;;;;;-1.71;100.00;102573.25;4812611;29;20166;-87
2021/01/15 02:55:12;;;;;;;15.45;9.20;;;;;;;-1.61;100.00;102595.19;4808976;29;20039;-87
2021/01/15 02:57:38;;;;;;;14.55;9.05;;;;;;;-1.68;100.00;102581.16;4810605;29;20045;-87
2021/01/15 03:00:07;;;;;;;14.35;9.23;;;;;;;-1.68;100.00;102604.47;4805510;29;20546;-87
2021/01/15 03:02:44;;;;;;;14.80;8.50;;;;;;;-1.61;100.00;102602.97;4809999;29;20065;-87
2021/01/15 03:05:15;;;;;;;14.43;9.02;;;;;;;-1.72;100.00;102592.25;4812655;29;20073;-87
2021/01/15 03:07:44;;;;;;;16.42;10.07;;;;;;;-1.64;100.00;102608.06;4807070;29;20058;-87
2021/01/15 03:10:11;;;;;;;18.13;9.90;;;;;;;-1.72;100.00;102587.06;4809275;29;20039;-87
2021/01/15 03:12:40;;;;;;;16.77;10.20;;;;;;;-1.59;100.00;102609.09;4807818;29;20038;-86
2021/01/15 03:15:08;;;;;;;20.83;9.05;;;;;;;-1.67;100.00;102595.88;4810066;29;20026;-87
2021/01/15 03:17:37;;;;;;;14.23;9.25;;;;;;;-1.84;100.00;102584.94;4808429;29;20034;-87
2021/01/15 03:20:03;;;;;;;14.75;10.30;;;;;;;-1.83;100.00;102578.03;4826927;29;20113;-88
2021/01/15 03:22:31;;;;;;;15.35;9.57;;;;;;;-1.59;100.00;102611.69;4804200;29;20054;-88
2021/01/15 03:24:59;;;;;;;16.30;9.25;;;;;;;-1.61;100.00;102603.88;4831606;29;20062;-88
2021/01/15 03:27:37;;;;;;;13.85;8.93;;;;;;;-1.60;100.00;102612.53;4808685;29;20050;-88
2021/01/15 03:30:04;;;;;;;15.63;8.82;;;;;;;-1.67;100.00;102595.88;4811045;29;20034;-87
2021/01/15 03:32:31;;;;;;;13.20;8.52;;;;;;;-1.52;100.00;102603.28;4808040;29;20054;-87
2021/01/15 03:34:56;;;;;;;15.98;9.48;;;;;;;-1.46;100.00;102600.00;4812609;29;20031;-87
2021/01/15 03:37:22;;;;;;;11.98;7.85;;;;;;;-1.24;100.00;102628.41;4832618;29;20045;-88
2021/01/15 03:39:50;;;;;;;15.55;9.13;;;;;;;-1.14;100.00;102614.91;4804773;29;20058;-88
2021/01/15 03:42:15;;;;;;;16.10;8.27;;;;;;;-1.15;100.00;102599.31;4800968;29;20061;-88
2021/01/15 03:44:41;;;;;;;17.02;8.48;;;;;;;-0.91;99.89;102614.75;4800731;29;20061;-88
2021/01/15 03:47:06;;;;;;;17.30;8.82;;;;;;;-0.89;100.00;102613.09;4810129;29;20091;-88
2021/01/15 03:49:31;;;;;;;12.10;8.38;;;;;;;-0.70;99.55;102619.69;4812622;29;20064;-87
2021/01/15 03:51:57;;;;;;;11.88;7.95;;;;;;;-0.86;98.81;102589.78;4807877;29;20028;-87
2021/01/15 03:54:22;;;;;;;16.02;8.75;;;;;;;-0.64;98.19;102620.78;4808434;29;21311;-87
2021/01/15 03:56:49;;;;;;;15.93;8.38;;;;;;;-0.62;98.46;102610.44;4808305;29;20030;-87
2021/01/15 03:59:14;;;;;;;12.50;8.18;;;;;;;-0.46;97.71;102625.63;4811256;29;20038;-87
2021/01/15 04:01:41;;;;;;;12.27;7.57;;;;;;;-0.43;97.95;102630.03;4812940;29;20559;-87
2021/01/15 04:04:32;;;;;;;15.57;8.73;;;;;;;-0.56;98.37;102603.69;4813521;29;20028;-87
2021/01/15 04:06:59;;;;;;;13.90;7.85;;;;;;;-0.43;97.91;102617.94;4781384;29;20036;-86
2021/01/15 04:09:24;;;;;;;14.75;7.97;;;;;;;-0.50;97.90;102595.22;4780388;30;20055;-87
2021/01/15 04:11:49;;;;;;;14.13;8.43;;;;;;;-0.29;97.30;102636.53;4787423;30;20071;-87
2021/01/15 04:14:15;;;;;;;12.93;7.57;;;;;;;-0.12;95.92;102630.06;4773288;30;20152;-87
2021/01/15 04:16:43;;;;;;;11.35;8.27;;;;;;;-0.20;96.44;102626.41;4773790;30;20075;-87
2021/01/15 04:19:08;;;;;;;14.73;7.38;;;;;;;-0.28;96.43;102604.50;4776172;29;20355;-87
2021/01/15 04:21:34;;;;;;;12.07;7.03;;;;;;;-0.10;96.39;102633.63;4783930;30;20027;-87
2021/01/15 04:24:02;;;;;;;11.30;7.85;;;;;;;-0.16;96.56;102640.34;4770351;30;20043;-87
2021/01/15 04:26:27;;;;;;;11.68;8.32;;;;;;;-0.15;96.16;102644.69;4763663;30;20047;-87
2021/01/15 04:28:52;;;;;;;11.27;7.20;;;;;;;-0.05;95.82;102642.44;4781836;29;20840;-87
2021/01/15 04:31:19;;;;;;;12.35;8.15;;;;;;;0.01;95.61;102653.84;4769075;30;20570;-87
2021/01/15 04:33:48;;;;;;;12.13;7.68;;;;;;;-0.14;96.47;102636.09;4779677;30;20088;-87
2021/01/15 04:36:13;;;;;;;13.02;7.72;;;;;;;-0.07;95.96;102649.28;4781052;30;20030;-87
2021/01/15 04:38:43;;;;;;;14.75;6.90;;;;;;;-0.04;94.94;102651.09;4787107;30;20481;-87
2021/01/15 04:41:09;;;;;;;15.55;7.07;;;;;;;0.08;94.82;102668.75;4774689;30;20030;-88
2021/01/15 04:43:38;;;;;;;16.02;8.10;;;;;;;0.13;95.73;102673.22;4794031;29;20105;-88
2021/01/15 04:46:04;;;;;;;11.77;7.50;;;;;;;0.06;95.11;102663.53;4806319;29;20030;-88
2021/01/15 04:48:34;;;;;;;15.40;8.77;;;;;;;0.08;94.83;102663.56;4810882;29;20414;-87
2021/01/15 04:51:02;;;;;;;11.65;7.70;;;;;;;-0.04;94.48;102644.19;4807910;29;20503;-87
2021/01/15 04:53:30;;;;;;;13.25;7.47;;;;;;;0.03;94.53;102652.13;4810968;29;20395;-87
2021/01/15 04:55:58;;;;;;;9.55;6.35;;;;;;;0.17;94.04;102688.09;4810531;29;20045;-87
2021/01/15 04:58:25;;;;;;;13.05;7.13;;;;;;;0.20;93.80;102669.97;4811240;29;20779;-87
2021/01/15 05:00:56;;;;;;;12.82;8.38;;;;;;;0.22;93.71;102667.41;4809966;29;20070;-87
2021/01/15 05:03:24;;;;;;;10.65;6.70;;;;;;;0.09;93.24;102650.59;4800872;29;20031;-87
2021/01/15 05:06:00;;;;;;;10.75;6.40;;;;;;;0.21;92.19;102670.84;4807671;29;20026;-86
2021/01/15 05:08:28;;;;;;;9.32;6.45;;;;;;;0.35;93.06;102685.13;4826484;29;20038;-85
2021/01/15 05:10:57;;;;;;;11.98;7.40;;;;;;;0.12;92.61;102655.88;4823799;29;20035;-86
2021/01/15 05:13:22;;;;;;;11.15;6.50;;;;;;;0.23;92.43;102685.66;4817920;29;20075;-87
2021/01/15 05:15:53;;;;;;;12.93;6.75;;;;;;;0.21;92.62;102673.47;4805837;29;20776;-87
2021/01/15 05:18:22;;;;;;;13.38;7.88;;;;;;;0.23;93.02;102683.06;4810310;29;20079;-87
2021/01/15 05:20:48;;;;;;;13.15;6.85;;;;;;;0.28;92.97;102682.31;4846775;29;20455;-86
2021/01/15 05:23:15;;;;;;;11.20;7.50;;;;;;;0.21;92.79;102694.25;4830263;29;20038;-86
2021/01/15 05:25:45;;;;;;;12.57;7.65;;;;;;;0.30;93.84;102704.91;4830427;29;20071;-86
2021/01/15 05:28:13;;;;;;;10.15;6.70;;;;;;;0.38;92.41;102705.13;4805687;29;20408;-86
2021/01/15 05:30:40;;;;;;;11.75;7.47;;;;;;;0.23;92.45;102688.25;4826990;29;20041;-86
2021/01/15 05:33:12;;;;;;;17.58;10.25;;;;;;;0.35;93.30;102705.03;4809254;29;20681;-86
2021/01/15 05:35:50;;;;;;;10.55;7.35;;;;;;;0.28;93.63;102710.91;4816203;29;20036;-86
2021/01/15 05:38:22;;;;;;;14.43;8.13;;;;;;;0.31;93.01;102703.19;4807632;29;20440;-86
2021/01/15 05:40:55;;;;;;;12.05;7.57;;;;;;;0.36;92.84;102707.69;4809541;29;20034;-86
2021/01/15 05:43:32;;;;;;;12.27;6.57;;;;;;;0.17;92.75;102685.50;4803461;29;20052;-87
2021/01/15 05:46:11;;;;;;;12.88;7.70;;;;;;;0.43;92.74;102717.41;4824958;29;20106;-86
2021/01/15 05:48:47;;;;;;;12.23;7.72;;;;;;;0.42;92.95;102715.66;4812010;29;20022;-87
2021/01/15 05:51:26;;;;;;;10.02;6.80;;;;;;;0.43;92.73;102722.59;4812878;29;20034;-87
2021/01/15 05:53:52;;;;;;;10.75;6.97;;;;;;;0.37;92.38;102709.44;4799169;29;20037;-87
2021/01/15 05:56:22;;;;;;;13.10;8.25;;;;;;;0.39;92.39;102718.16;4790933;29;20031;-87
2021/01/15 05:59:16;;;;;;;12.57;7.20;;;;;;;0.41;92.35;102726.91;4823065;29;20030;-87
2021/01/15 06:01:49;;;;;;;11.82;7.72;;;;;;;0.50;92.95;102731.44;4832042;29;20038;-87
2021/01/15 06:04:31;;;;;;;12.35;8.00;;;;;;;0.47;92.27;102716.66;4808092;29;20034;-86
2021/01/15 06:07:06;;;;;;;11.80;7.32;;;;;;;0.59;91.60;102744.72;4821315;29;20030;-87
2021/01/15 06:09:32;;;;;;;13.90;7.35;;;;;;;0.68;90.16;102751.91;4829807;29;20041;-87
2021/01/15 06:12:12;;;;;;;12.90;8.48;;;;;;;0.51;90.35;102735.84;4816301;29;20026;-86
2021/01/15 06:14:52;;;;;;;10.43;7.22;;;;;;;0.61;91.53;102760.41;4802701;29;20042;-86
2021/01/15 06:17:20;;;;;;;12.00;7.88;;;;;;;0.58;92.06;102744.69;4807099;29;20475;-87
2021/01/15 06:20:02;;;;;;;11.82;8.18;;;;;;;0.65;91.30;102770.03;4815062;29;20030;-87
2021/01/15 06:22:44;;;;;;;13.00;8.25;;;;;;;0.44;91.24;102736.50;4831841;29;20399;-85
2021/01/15 06:25:33;;;;;;;13.82;8.15;;;;;;;0.64;92.34;102763.06;4831980;29;20107;-85
2021/01/15 06:28:03;;;;;;;12.35;7.70;;;;;;;0.58;91.30;102758.56;4811890;29;20062;-87
2021/01/15 06:30:33;;;;;;;15.27;7.55;;;;;;;0.55;91.90;102752.41;4807412;29;20123;-87
2021/01/15 06:33:12;;;;;;;12.77;7.70;;;;;;;0.65;92.13;102768.31;4805649;29;20026;-86
2021/01/15 06:35:40;;;;;;;12.38;7.85;;;;;;;0.60;92.70;102772.50;4807892;29;20058;-86
2021/01/15 06:38:07;;;;;;;16.58;8.80;;;;;;;0.68;93.86;102783.13;4825701;29;20026;-85
2021/01/15 06:40:39;;;;;;;13.93;8.18;;;;;;;0.63;92.85;102785.59;4831967;29;20075;-85
2021/01/15 06:43:08;;;;;;;14.00;8.82;;;;;;;0.50;93.40;102762.69;4832125;29;20022;-86
2021/01/15 06:45:43;;;;;;;14.43;8.10;;;;;;;0.50;92.83;102768.78;4848407;29;20021;-86
2021/01/15 06:48:10;;;;;;;14.65;8.30;;;;;;;0.68;93.39;102788.34;4829548;29;20022;-86
2021/01/15 06:50:56;;;;;;;14.13;7.40;;;;;;;0.56;93.76;102778.47;4806235;29;20034;-86
2021/01/15 06:53:31;;;;;;;13.25;8.88;;;;;;;0.64;93.21;102794.28;4806233;29;20518;-86
2021/01/15 06:55:59;;;;;;;16.60;8.63;;;;;;;0.52;92.90;102774.03;4806154;29;20771;-86
2021/01/15 06:58:27;;;;;;;16.40;9.73;;;;;;;0.57;93.94;102802.78;4787086;29;20807;-86
2021/01/15 07:01:22;;;;;;;11.15;7.68;;;;;;;0.56;94.03;102782.81;4808782;29;20131;-86
2021/01/15 07:04:16;;;;;;;14.85;9.27;;;;;;;0.61;93.79;102802.03;4807917;29;20034;-87
2021/01/15 07:07:04;;;;;;;11.88;8.10;;;;;;;0.57;93.76;102806.25;4810457;29;20038;-87
2021/01/15 07:09:30;;;;;;;16.17;9.00;;;;;;;0.44;93.78;102796.34;4803686;29;20045;-86
2021/01/15 07:11:56;;;;;;;29.05;11.98;;;;;;;0.50;94.69;102815.63;4823109;29;20030;-86
2021/01/15 07:14:30;;;;;;;20.42;10.73;;;;;;;0.47;93.34;102806.84;4807627;29;20026;-86
2021/01/15 07:16:58;;;;;;;14.73;9.23;;;;;;;0.50;93.65;102802.63;4805224;29;20506;-86
2021/01/15 07:19:34;;;;;;;15.50;9.32;;;;;;;0.50;94.44;102828.63;4810261;29;20038;-86
2021/01/15 07:22:03;;;;;;;14.65;9.25;;;;;;;0.52;94.27;102823.47;4819024;29;20079;-86
2021/01/15 07:24:33;;;;;;;19.40;9.13;;;;;;;0.60;93.85;102834.06;4828322;29;20030;-85
2021/01/15 07:27:03;;;;;;;13.18;8.90;;;;;;;0.51;93.59;102816.50;4824698;29;20069;-87
2021/01/15 07:29:43;;;;;;;14.98;9.10;;;;;;;0.57;93.48;102827.06;4809835;29;20765;-87
2021/01/15 07:32:21;;;;;;;15.40;8.75;;;;;;;0.55;93.12;102813.13;4809193;29;20068;-87
2021/01/15 07:34:50;;;;;;;31.05;27.75;;;;;;;0.59;94.09;102832.31;4809704;29;20039;-87
2021/01/15 07:37:27;;;;;;;14.75;9.40;;;;;;;0.73;92.99;102844.00;4811382;29;20110;-87
2021/01/15 07:40:09;;;;;;;16.85;9.85;;;;;;;0.72;93.47;102853.53;4816997;29;20514;-86
2021/01/15 07:42:51;;;;;;;19.50;9.43;;;;;;;0.72;93.28;102858.75;4823948;29;20033;-87
2021/01/15 07:45:23;;;;;;;17.38;9.50;;;;;;;0.77;92.78;102854.53;4812053;29;20030;-87
2021/01/15 07:48:05;;;;;;;15.77;8.73;;;;;;;0.58;92.39;102833.16;4817141;29;20034;-87
2021/01/15 07:50:39;;;;;;;14.73;9.40;;;;;;;0.82;91.48;102857.28;4810415;29;20095;-87
2021/01/15 07:53:24;;;;;;;16.00;8.70;;;;;;;0.81;91.58;102850.31;4812659;29;20041;-87
2021/01/15 07:56:00;;;;;;;14.40;8.43;;;;;;;0.97;88.82;102855.09;4815395;29;20102;-87
2021/01/15 07:58:26;;;;;;;;;;;;;;;1.06;88.01;102866.59;4816488;29;20066;-87
2021/01/15 08:00:52;;;;;;;13.82;6.57;;;;;;;0.89;87.96;102838.38;4810953;29;19920;-87
2021/01/15 08:03:26;;;;;;;15.93;5.85;;;;;;;0.93;86.25;102841.94;4823532;29;20175;-87
2021/01/15 08:05:56;;;;;;;11.63;5.80;;;;;;;1.18;85.03;102853.91;4810210;29;20769;-87
2021/01/15 08:08:22;;;;;;;10.48;5.30;;;;;;;1.18;84.72;102856.50;4827321;29;20026;-87
2021/01/15 08:10:50;;;;;;;10.95;7.07;;;;;;;1.28;85.28;102882.84;4815471;29;20041;-87
2021/01/15 08:13:23;;;;;;;13.57;7.05;;;;;;;1.28;86.17;102889.78;4811127;29;20125;-87
2021/01/15 08:15:53;;;;;;;11.65;7.65;;;;;;;1.12;86.55;102878.06;4808786;29;20032;-87
2021/01/15 08:18:19;;;;;;;12.77;8.02;;;;;;;1.25;87.01;102897.50;4810654;29;20098;-87
2021/01/15 08:20:53;;;;;;;12.30;8.13;;;;;;;1.06;87.76;102880.50;4806958;29;20087;-87
2021/01/15 08:23:21;;;;;;;12.32;8.00;;;;;;;1.14;88.16;102901.53;4822320;29;20453;-87
2021/01/15 08:25:51;;;;;;;17.60;8.43;;;;;;;1.09;89.08;102909.22;4808031;29;20592;-87
2021/01/15 08:28:17;;;;;;;17.13;9.05;;;;;;;1.14;88.63;102918.03;4808358;29;20046;-87
2021/01/15 08:30:58;;;;;;;13.20;7.65;;;;;;;1.06;88.28;102898.75;4808278;29;20030;-87
2021/01/15 08:33:24;;;;;;;14.85;9.18;;;;;;;0.87;89.74;102888.66;4808274;29;21622;-87
2021/01/15 08:35:58;;;;;;;15.80;8.00;;;;;;;0.82;90.42;102885.03;4812016;29;20038;-87
2021/01/15 08:38:37;;;;;;;19.40;12.13;;;;;;;1.03;89.68;102915.16;4804216;29;20774;-87
2021/01/15 08:41:26;;;;;;;16.67;9.68;;;;;;;1.07;89.90;102905.72;4811861;29;20069;-87
2021/01/15 08:43:58;;;;;;;13.70;8.38;;;;;;;1.04;89.18;102913.41;4811142;29;20057;-87
2021/01/15 08:46:37;;;;;;;;;;;;;;;;;;;;;
2021/01/15 08:49:09;;;;;;;14.90;8.75;;;;;;;0.89;89.79;102890.44;4825022;29;20036;-87
2021/01/15 08:51:36;;;;;;;18.67;9.13;;;;;;;1.12;90.16;102911.94;4803061;29;20034;-87
2021/01/15 08:54:05;;;;;;;16.08;9.75;;;;;;;0.93;90.74;102891.41;4808995;29;20041;-87
2021/01/15 08:56:44;;;;;;;20.35;9.45;;;;;;;1.09;90.75;102926.56;4809126;29;20483;-87
2021/01/15 08:59:11;;;;;;;14.25;9.05;;;;;;;1.12;90.81;102918.84;4808754;29;20081;-87
2021/01/15 09:01:41;;;;;;;22.13;11.00;;;;;;;1.06;89.56;102916.97;4808026;29;20120;-87
2021/01/15 09:04:10;;;;;;;20.55;11.70;;;;;;;1.14;90.47;102915.44;4813970;29;20080;-87
2021/01/15 09:06:36;;;;;;;17.65;10.45;;;;;;;1.25;89.68;102931.34;4827698;29;20030;-87
2021/01/15 09:09:07;;;;;;;22.00;11.70;;;;;;;1.26;89.72;102934.03;4808218;29;21736;-87
2021/01/15 09:11:34;;;;;;;16.80;10.00;;;;;;;1.41;89.45;102943.97;4808159;29;20030;-87
2021/01/15 09:14:01;;;;;;;16.90;10.32;;;;;;;1.39;88.78;102934.34;4806676;29;20034;-88
2021/01/15 09:16:28;;;;;;;18.00;10.05;;;;;;;1.51;89.30;102955.53;4808734;29;20033;-86
2021/01/15 09:18:56;;;;;;;16.52;9.32;;;;;;;1.40;89.12;102923.94;4807902;29;20022;-87
2021/01/15 09:21:22;;;;;;;15.48;9.88;;;;;;;1.45;88.72;102947.53;4804890;29;20053;-87
2021/01/15 09:23:48;;;;;;;15.75;9.95;;;;;;;1.50;89.77;102956.34;4808452;29;20466;-87
2021/01/15 09:26:20;;;;;;;19.52;9.85;;;;;;;1.38;90.00;102935.19;4807044;29;20075;-87
2021/01/15 09:29:00;;;;;;;17.83;9.82;;;;;;;1.52;89.69;102962.50;4805711;29;20054;-87
2021/01/15 09:34:30;;;;;;;18.13;11.25;;;;;;;1.47;88.55;102944.13;4754426;30;20106;-87
2021/01/15 09:36:58;;;;;;;19.77;11.27;;;;;;;1.49;88.23;102960.69;4733224;30;20090;-87
2021/01/15 09:39:26;;;;;;;19.17;10.68;;;;;;;1.54;88.83;102969.50;4738493;30;20116;-87
2021/01/15 09:45:56;;;;;;;18.33;9.95;;;;;;;1.73;89.32;102988.25;4744326;30;20038;-87
2021/01/15 09:49:02;;;;;;;18.30;9.85;;;;;;;1.63;88.90;102966.28;4741997;30;20050;-87
2021/01/15 09:51:47;;;;;;;;;;;;;;;;;;;;;
2021/01/15 09:54:13;;;;;;;19.63;11.75;;;;;;;1.67;88.17;102988.09;4716736;30;20057;-87
2021/01/15 09:56:40;;;;;;;22.30;11.38;;;;;;;1.64;88.48;102991.50;4702135;30;20164;-87
2021/01/15 09:59:06;;;;;;;18.33;11.18;;;;;;;1.76;88.35;102996.16;4693527;30;20588;-87
2021/01/15 10:01:39;;;;;;;16.63;9.63;;;;;;;1.70;87.63;102986.44;4713940;30;20044;-87
2021/01/15 10:04:04;;;;;;;16.17;9.68;;;;;;;1.81;88.39;103015.41;4714346;30;20103;-87
2021/01/15 10:06:32;;;;;;;23.35;10.68;;;;;;;1.80;87.71;103017.13;4714445;30;20045;-87
2021/01/15 10:08:58;;;;;;;19.33;10.50;;;;;;;1.86;87.44;103021.63;4715323;30;20119;-87
2021/01/15 10:11:32;;;;;;;19.80;9.93;;;;;;;1.80;87.66;103009.28;4721772;30;20052;-87
2021/01/15 10:13:59;;;;;;;17.20;9.63;;;;;;;1.76;87.34;103001.38;4717306;30;20032;-87
2021/01/15 10:16:29;;;;;;;17.92;9.75;;;;;;;1.75;87.20;102990.03;4728306;30;20049;-86
2021/01/15 10:18:56;;;;;;;16.20;10.10;;;;;;;1.76;87.60;103001.38;4733580;30;20046;-87
2021/01/15 10:21:23;;;;;;;13.65;8.95;;;;;;;1.81;87.84;103020.63;4726422;30;20051;-87
2021/01/15 10:23:48;;;;;;;20.75;9.95;;;;;;;1.72;88.79;103012.56;4718940;30;20127;-87
2021/01/15 10:26:22;;;;;;;14.85;9.18;;;;;;;1.70;87.67;103009.91;4734714;30;20115;-86
2021/01/15 10:32:16;;;;;;;19.45;10.25;;;;;;;1.80;87.52;103024.06;4770483;30;20052;-86
2021/01/15 10:34:41;;;;;;;18.67;9.18;;;;;;;1.91;87.34;103042.59;4768056;30;20078;-87
2021/01/15 10:37:07;;;;;;;16.38;10.13;;;;;;;1.91;87.76;103055.63;4769015;30;20485;-87
2021/01/15 10:39:33;;;;;;;16.33;9.73;;;;;;;1.78;87.69;103034.47;4763209;30;20032;-87
2021/01/15 10:42:01;;;;;;;19.55;10.65;;;;;;;1.85;88.59;103053.75;4763977;30;20052;-86
2021/01/15 10:44:37;;;;;;;17.50;10.95;;;;;;;1.85;87.70;103032.00;4757015;30;20141;-86
2021/01/15 10:47:03;;;;;;;15.65;9.60;;;;;;;1.80;87.86;103030.16;4770060;30;20043;-87
2021/01/15 10:49:28;;;;;;;17.88;9.73;;;;;;;1.91;88.37;103050.41;4767531;30;20040;-86
2021/01/15 10:51:59;;;;;;;21.77;9.85;;;;;;;1.75;87.70;103020.44;4755903;30;20105;-86
2021/01/15 10:57:52;;;;;;;17.83;9.20;;;;;;;1.93;87.36;103052.25;4767233;30;20090;-86
2021/01/15 11:00:18;;;;;;;23.17;12.90;;;;;;;1.81;87.37;103024.13;4766841;30;20063;-87
2021/01/15 11:02:50;;;;;;;24.63;12.02;;;;;;;1.90;88.18;103038.22;4793998;29;20046;-86
2021/01/15 11:05:16;;;;;;;20.30;10.45;;;;;;;2.01;87.11;103045.50;4807497;29;20038;-87
2021/01/15 11:07:44;;;;;;;17.20;10.63;;;;;;;2.00;88.17;103046.31;4809756;29;20034;-86
2021/01/15 11:10:10;;;;;;;18.15;9.98;;;;;;;2.02;87.23;103049.00;4826507;29;20555;-86
2021/01/15 11:12:38;;;;;;;25.13;9.75;;;;;;;1.94;87.85;103040.06;4808441;29;20034;-86
2021/01/15 11:15:05;;;;;;;20.92;11.40;;;;;;;1.92;87.72;103040.03;4809621;29;20026;-86
2021/01/15 11:17:30;;;;;;;14.95;9.57;;;;;;;1.91;87.55;103039.97;4808411;29;20030;-86
2021/01/15 11:19:56;;;;;;;14.65;9.63;;;;;;;1.91;88.36;103047.81;4810090;29;20403;-86
2021/01/15 11:22:22;;;;;;;15.32;9.63;;;;;;;1.83;87.25;103044.13;4810661;29;20030;-86
2021/01/15 11:24:47;;;;;;;18.45;8.90;;;;;;;1.97;88.02;103059.31;4825909;29;20049;-86
2021/01/15 11:27:12;;;;;;;24.48;9.63;;;;;;;1.84;87.80;103025.03;4809412;29;20503;-86
2021/01/15 11:29:38;;;;;;;17.58;9.65;;;;;;;1.87;88.01;103028.63;4794672;29;20031;-86
2021/01/15 11:32:04;;;;;;;17.92;9.57;;;;;;;1.79;88.19;103037.94;4799896;29;20107;-86
2021/01/15 11:34:29;;;;;;;20.75;10.88;;;;;;;1.86;87.85;103037.28;4807082;29;20119;-86
2021/01/15 11:36:54;;;;;;;24.38;9.85;;;;;;;1.81;87.18;103031.94;4793062;29;20039;-86
2021/01/15 11:39:20;;;;;;;25.90;10.52;;;;;;;1.86;88.21;103050.31;4805782;29;20448;-86
2021/01/15 11:41:54;;;;;;;24.02;10.23;;;;;;;1.96;86.74;103052.34;4803048;29;20046;-87
2021/01/15 11:44:19;;;;;;;17.13;9.82;;;;;;;2.02;87.38;103052.47;4811256;29;20041;-87
2021/01/15 11:46:44;;;;;;;17.52;9.93;;;;;;;1.98;88.05;103061.06;4807378;29;20038;-86